Time;durP1;ratioP1;P1;durP2;ratioP2;P2;SDS_P1;SDS_P2;PMS_P1;PMS_P2;Temp;Humidity;BMP_temperature;BMP_pressure;BME280_temperature;BME280_humidity;BME280_pressure;Samples;Min_cycle;Max_cycle;Signal;HPM_P1;HPM_P2
2021/08/26 00:00:43;;;;;;;5.45;3.45;;;;;;;15.74;72.44;99699.84;4989060;28;20246;-68
2021/08/26 00:06:18;;;;;;;4.55;3.58;;;;;;;15.79;72.10;99695.06;4966005;28;20105;-69
2021/08/26 00:08:45;;;;;;;4.72;3.45;;;;;;;15.78;72.53;99688.88;4984294;28;20037;-67
2021/08/26 00:11:12;;;;;;;9.38;3.60;;;;;;;15.82;72.48;99678.88;4975339;28;20403;-67
2021/08/26 00:13:37;;;;;;;4.50;3.63;;;;;;;15.81;72.34;99678.03;4971834;28;20042;-67
2021/08/26 00:16:03;;;;;;;5.60;4.10;;;;;;;15.79;72.61;99676.44;4972000;28;20027;-67
2021/08/26 00:18:28;;;;;;;4.57;3.35;;;;;;;15.77;72.63;99673.88;4971459;28;20042;-67
2021/08/26 00:20:54;;;;;;;5.93;4.20;;;;;;;15.80;72.31;99679.00;4971584;28;20165;-67
2021/08/26 00:23:23;;;;;;;5.75;4.18;;;;;;;15.78;72.70;99672.94;4971855;28;20043;-69
2021/08/26 00:25:49;;;;;;;6.40;4.40;;;;;;;15.77;73.14;99678.34;4971976;28;20039;-71
2021/08/26 00:28:15;;;;;;;9.85;5.47;;;;;;;15.69;74.48;99665.59;4971225;28;20125;-70
2021/08/26 00:30:40;;;;;;;6.93;5.45;;;;;;;15.65;75.02;99667.63;4972131;28;20062;-70
2021/08/26 00:33:06;;;;;;;8.63;6.57;;;;;;;15.63;75.37;99666.06;4977641;28;20034;-70
2021/08/26 00:35:31;;;;;;;8.80;5.63;;;;;;;15.58;75.91;99663.72;4972314;28;20125;-70
2021/08/26 00:37:57;;;;;;;9.77;6.70;;;;;;;15.46;76.75;99670.75;4971355;28;20545;-69
2021/08/26 00:40:22;;;;;;;11.38;6.40;;;;;;;15.41;77.59;99666.75;4971265;28;20035;-68
2021/08/26 00:42:49;;;;;;;11.25;6.00;;;;;;;15.40;77.76;99660.56;4971629;28;20081;-69
2021/08/26 00:45:14;;;;;;;8.95;6.43;;;;;;;15.41;78.32;99672.06;4970880;28;20114;-69
2021/08/26 00:47:47;;;;;;;9.90;6.50;;;;;;;15.39;78.75;99660.69;4970994;28;20542;-68
2021/08/26 00:50:13;;;;;;;10.73;8.07;;;;;;;15.30;78.90;99653.38;4990104;28;20108;-69
2021/08/26 00:52:39;;;;;;;13.98;6.85;;;;;;;15.23;79.28;99653.81;4988464;28;20053;-69
2021/08/26 00:55:07;;;;;;;12.43;7.80;;;;;;;15.15;79.89;99652.63;4990441;28;20042;-69
2021/08/26 00:57:32;;;;;;;13.38;7.80;;;;;;;15.10;80.53;99652.13;4989448;28;20093;-70
2021/08/26 00:59:57;;;;;;;11.75;8.75;;;;;;;15.09;80.97;99658.38;4990434;28;20050;-71
2021/08/26 01:02:49;;;;;;;9.93;7.18;;;;;;;15.09;80.96;99648.63;4966470;28;20390;-70
2021/08/26 01:05:20;;;;;;;11.88;8.35;;;;;;;15.06;80.81;99646.16;4979869;28;20034;-69
2021/08/26 01:07:58;;;;;;;9.32;8.23;;;;;;;15.04;81.50;99645.44;4989314;28;20030;-69
2021/08/26 01:10:24;;;;;;;11.90;8.50;;;;;;;15.00;81.33;99639.47;4989957;28;20048;-68
2021/08/26 01:12:54;;;;;;;14.10;9.70;;;;;;;14.98;81.74;99624.63;4990740;28;20027;-68
2021/08/26 01:15:20;;;;;;;10.00;8.05;;;;;;;14.96;81.41;99621.22;4989252;28;20041;-68
2021/08/26 01:17:46;;;;;;;12.25;9.60;;;;;;;14.94;81.69;99615.16;4989424;28;20034;-68
2021/08/26 01:20:13;;;;;;;13.55;9.90;;;;;;;14.92;81.89;99614.44;4990418;28;20478;-69
2021/08/26 01:22:38;;;;;;;11.77;9.90;;;;;;;14.89;82.08;99610.19;4990511;28;20520;-67
2021/08/26 01:25:07;;;;;;;12.45;9.93;;;;;;;14.86;81.98;99596.28;4986901;28;20070;-67
2021/08/26 01:27:44;;;;;;;11.95;8.93;;;;;;;14.86;82.18;99596.28;5000612;28;20034;-67
2021/08/26 01:30:19;;;;;;;11.25;10.13;;;;;;;14.85;82.50;99594.59;4996275;28;20033;-67
2021/08/26 01:32:52;;;;;;;10.82;9.40;;;;;;;14.83;82.66;99592.03;4989562;28;20394;-68
2021/08/26 01:35:19;;;;;;;11.65;10.45;;;;;;;14.84;82.35;99591.09;4970762;28;20045;-67
2021/08/26 01:37:45;;;;;;;13.52;12.13;;;;;;;14.86;82.59;99585.66;4969931;28;20037;-67
2021/08/26 01:40:11;;;;;;;14.20;12.45;;;;;;;14.85;82.80;99586.63;4970247;28;20045;-67
2021/08/26 01:42:36;;;;;;;12.45;11.15;;;;;;;14.83;83.20;99586.72;4968777;28;20043;-68
2021/08/26 01:45:07;;;;;;;15.68;13.95;;;;;;;14.84;83.53;99593.75;4970231;28;20037;-69
2021/08/26 01:47:32;;;;;;;12.45;10.90;;;;;;;14.82;83.56;99585.88;4969959;28;20055;-67
2021/08/26 01:49:59;;;;;;;12.13;10.68;;;;;;;14.85;83.56;99589.28;4970061;28;20038;-68
2021/08/26 01:52:25;;;;;;;12.60;10.45;;;;;;;14.92;83.67;99593.19;4970341;28;20555;-69
2021/08/26 01:55:00;;;;;;;12.25;10.80;;;;;;;14.95;83.07;99579.72;4970538;28;20046;-68
2021/08/26 01:57:30;;;;;;;12.02;10.82;;;;;;;14.94;83.28;99578.00;4969844;28;20046;-67
2021/08/26 02:00:00;;;;;;;11.73;10.50;;;;;;;14.89;83.57;99570.38;4976315;28;20061;-68
2021/08/26 02:02:26;;;;;;;12.82;11.18;;;;;;;14.89;84.02;99575.69;4990158;28;20053;-68
2021/08/26 02:04:51;;;;;;;14.20;12.68;;;;;;;14.87;84.08;99563.50;4989006;28;20493;-67
2021/08/26 02:07:16;;;;;;;14.02;12.57;;;;;;;14.87;84.55;99566.13;4989125;28;20061;-69
2021/08/26 02:09:42;;;;;;;15.48;12.35;;;;;;;14.88;84.47;99555.41;4989601;28;20096;-67
2021/08/26 02:12:07;;;;;;;16.35;13.55;;;;;;;14.89;84.74;99559.75;4989864;28;20045;-68
2021/08/26 02:14:33;;;;;;;16.85;15.07;;;;;;;14.89;84.42;99551.81;4988072;28;20057;-68
2021/08/26 02:16:58;;;;;;;15.02;12.45;;;;;;;14.90;84.61;99545.53;4988921;28;20489;-68
2021/08/26 02:19:24;;;;;;;13.57;11.13;;;;;;;14.95;84.70;99547.84;4989564;28;20042;-67
2021/08/26 02:21:50;;;;;;;14.20;12.27;;;;;;;14.97;84.61;99537.97;4989813;28;20446;-68
2021/08/26 02:24:15;;;;;;;14.02;11.70;;;;;;;14.98;84.53;99544.97;4989436;28;20490;-69
2021/08/26 02:26:40;;;;;;;14.35;12.80;;;;;;;15.01;84.56;99535.00;4988751;28;20031;-70
2021/08/26 02:29:06;;;;;;;17.17;12.65;;;;;;;15.03;84.22;99540.19;4989353;28;20110;-70
2021/08/26 02:31:31;;;;;;;14.52;13.02;;;;;;;15.01;84.15;99531.47;4989114;28;20049;-70
2021/08/26 02:33:57;;;;;;;14.00;12.50;;;;;;;15.05;84.74;99532.13;4989252;28;20049;-70
2021/08/26 02:36:23;;;;;;;16.95;14.13;;;;;;;15.05;84.48;99535.63;4988805;28;20117;-71
2021/08/26 02:38:49;;;;;;;16.05;13.50;;;;;;;15.05;84.38;99530.31;4990000;28;20033;-70
2021/08/26 02:41:15;;;;;;;19.05;15.20;;;;;;;15.05;84.83;99530.31;4992187;28;20034;-69
2021/08/26 02:43:41;;;;;;;18.85;15.07;;;;;;;15.05;84.80;99525.00;4992938;28;20097;-69
2021/08/26 02:46:06;;;;;;;17.58;14.68;;;;;;;15.10;84.97;99525.50;4992652;28;20030;-69
2021/08/26 02:48:32;;;;;;;15.27;13.48;;;;;;;15.12;84.95;99523.59;4991838;28;20062;-69
2021/08/26 02:50:57;;;;;;;13.95;11.93;;;;;;;15.14;84.95;99534.13;4992862;28;20100;-69
2021/08/26 02:53:22;;;;;;;13.52;12.15;;;;;;;15.16;85.14;99526.88;4992564;28;20046;-69
2021/08/26 02:55:48;;;;;;;13.48;11.50;;;;;;;15.14;84.93;99527.00;4993192;28;20513;-68
2021/08/26 02:58:13;;;;;;;13.73;10.88;;;;;;;15.15;85.13;99526.03;4990367;28;20081;-68
2021/08/26 03:00:39;;;;;;;12.68;10.98;;;;;;;15.15;85.11;99528.69;4992454;28;20036;-68
2021/08/26 03:03:04;;;;;;;11.93;10.35;;;;;;;15.15;85.36;99525.19;4990471;28;20034;-68
2021/08/26 03:05:29;;;;;;;12.48;9.52;;;;;;;15.14;85.18;99527.00;4992581;28;20031;-68
2021/08/26 03:07:56;;;;;;;11.65;9.65;;;;;;;15.16;85.21;99535.69;4988361;28;20033;-68
2021/08/26 03:10:23;;;;;;;11.55;9.93;;;;;;;15.19;85.15;99526.66;4991123;28;20453;-68
2021/08/26 03:12:48;;;;;;;11.55;9.23;;;;;;;15.18;85.29;99528.44;4992632;28;20049;-68
2021/08/26 03:15:13;;;;;;;9.48;8.43;;;;;;;15.19;85.61;99535.47;4992341;28;20387;-68
2021/08/26 03:17:39;;;;;;;9.35;8.35;;;;;;;15.23;85.74;99534.31;4990882;28;20124;-68
2021/08/26 03:20:05;;;;;;;10.38;8.75;;;;;;;15.28;85.33;99533.94;4992040;28;20042;-68
2021/08/26 03:22:30;;;;;;;10.35;9.23;;;;;;;15.30;85.28;99536.50;4991845;28;20038;-68
2021/08/26 03:24:55;;;;;;;8.80;7.30;;;;;;;15.31;85.19;99539.06;4994323;28;20486;-67
2021/08/26 03:27:21;;;;;;;6.97;6.28;;;;;;;15.32;84.67;99538.06;4991506;28;20039;-68
2021/08/26 03:29:46;;;;;;;8.40;5.03;;;;;;;15.33;84.11;99536.25;4992786;28;20042;-68
2021/08/26 03:32:12;;;;;;;5.70;4.63;;;;;;;15.29;83.45;99537.47;5014068;28;20037;-68
2021/08/26 03:34:37;;;;;;;6.78;5.32;;;;;;;15.30;83.53;99526.72;5014165;28;20074;-68
2021/08/26 03:37:03;;;;;;;5.97;4.30;;;;;;;15.32;83.20;99531.94;5011531;28;20033;-68
2021/08/26 03:39:28;;;;;;;7.35;6.03;;;;;;;15.33;83.61;99523.81;5012203;28;20048;-68
2021/08/26 03:41:53;;;;;;;8.32;5.68;;;;;;;15.36;83.37;99525.44;5011980;28;20117;-68
2021/08/26 03:44:19;;;;;;;8.50;5.30;;;;;;;15.38;83.96;99534.13;5012281;28;20389;-68
2021/08/26 03:46:44;;;;;;;5.60;4.20;;;;;;;15.39;83.37;99530.53;5011137;28;20041;-68
2021/08/26 03:49:09;;;;;;;8.63;5.50;;;;;;;15.39;83.27;99525.22;5010917;28;20556;-68
2021/08/26 03:51:35;;;;;;;8.50;6.10;;;;;;;15.44;83.03;99531.03;5010186;28;20034;-68
2021/08/26 03:54:00;;;;;;;8.10;4.60;;;;;;;15.44;83.40;99525.72;5011294;28;20053;-68
2021/08/26 03:56:25;;;;;;;7.70;5.30;;;;;;;15.46;82.69;99521.16;5010683;28;20065;-69
2021/08/26 03:58:51;;;;;;;7.97;5.43;;;;;;;15.47;82.28;99528.13;5012171;28;20032;-68
2021/08/26 04:01:16;;;;;;;8.27;6.03;;;;;;;15.48;82.23;99534.28;5011581;28;20037;-67
2021/08/26 04:03:41;;;;;;;7.20;4.82;;;;;;;15.52;82.22;99539.28;5011370;28;20057;-68
2021/08/26 04:06:07;;;;;;;9.00;5.65;;;;;;;15.58;82.25;99535.31;5011110;28;20037;-68
2021/08/26 04:08:32;;;;;;;9.27;6.50;;;;;;;15.58;82.28;99535.31;5008863;28;20038;-68
2021/08/26 04:10:58;;;;;;;8.40;5.85;;;;;;;15.51;82.54;99532.28;4995713;28;20058;-68
2021/08/26 04:13:23;;;;;;;8.80;6.47;;;;;;;15.51;82.19;99528.78;4991900;28;20042;-69
2021/08/26 04:15:48;;;;;;;8.68;5.72;;;;;;;15.47;80.70;99528.13;4972233;28;20089;-69
2021/08/26 04:18:14;;;;;;;11.18;6.05;;;;;;;15.47;80.85;99530.78;4971473;28;20031;-68
2021/08/26 04:20:40;;;;;;;8.43;5.47;;;;;;;15.44;81.24;99531.88;4971933;28;20054;-68
2021/08/26 04:23:06;;;;;;;8.40;5.30;;;;;;;15.41;79.83;99526.78;4971700;28;20471;-68
2021/08/26 04:25:31;;;;;;;7.00;5.13;;;;;;;15.42;79.92;99523.16;4971641;28;20038;-68
2021/08/26 04:27:57;;;;;;;9.35;5.75;;;;;;;15.43;80.37;99524.88;4970794;28;20034;-68
2021/08/26 04:30:22;;;;;;;8.55;6.55;;;;;;;15.45;81.04;99522.94;4971978;28;20050;-69
2021/08/26 04:32:48;;;;;;;7.57;5.53;;;;;;;15.46;80.12;99527.28;4971811;28;20041;-69
2021/08/26 04:35:13;;;;;;;7.70;6.07;;;;;;;15.49;80.53;99520.06;4971593;28;20054;-69
2021/08/26 04:37:38;;;;;;;10.75;6.15;;;;;;;15.49;80.84;99526.22;4970634;28;20101;-70
2021/08/26 04:40:04;;;;;;;7.38;4.38;;;;;;;15.46;81.20;99523.81;4971374;28;20065;-69
2021/08/26 04:42:30;;;;;;;9.38;6.05;;;;;;;15.45;80.22;99522.94;4971339;28;20053;-68
2021/08/26 04:44:55;;;;;;;10.85;6.03;;;;;;;15.41;80.55;99523.28;4973706;28;20084;-69
2021/08/26 04:47:20;;;;;;;8.82;5.65;;;;;;;15.37;80.59;99525.31;4971148;28;20065;-68
2021/08/26 04:49:45;;;;;;;8.32;5.38;;;;;;;15.36;80.91;99531.59;4971140;28;20106;-68
2021/08/26 04:52:11;;;;;;;7.55;5.25;;;;;;;15.35;80.45;99529.88;4969406;28;20051;-68
2021/08/26 04:54:37;;;;;;;7.72;4.70;;;;;;;15.35;80.58;99527.22;4970649;28;20082;-69
2021/08/26 04:57:03;;;;;;;7.05;4.72;;;;;;;15.35;79.79;99526.38;4970907;28;20078;-68
2021/08/26 04:59:28;;;;;;;13.48;4.47;;;;;;;15.37;80.04;99529.78;4970835;28;20278;-68
2021/08/26 05:01:53;;;;;;;6.78;4.80;;;;;;;15.35;80.60;99523.72;4970840;28;20046;-69
2021/08/26 05:04:23;;;;;;;7.78;4.95;;;;;;;15.36;80.61;99530.75;4971024;28;20034;-68
2021/08/26 05:06:52;;;;;;;11.82;5.13;;;;;;;15.35;81.10;99529.88;4970559;28;20109;-68
2021/08/26 05:09:19;;;;;;;8.48;5.10;;;;;;;15.36;80.96;99528.94;4967891;28;20049;-69
2021/08/26 05:11:45;;;;;;;5.13;3.78;;;;;;;15.39;80.47;99533.19;4965676;28;20061;-69
2021/08/26 05:14:10;;;;;;;10.38;6.10;;;;;;;15.40;81.42;99526.88;4967259;28;20030;-65
2021/08/26 05:16:36;;;;;;;8.82;5.38;;;;;;;15.40;80.32;99530.38;4974084;28;20038;-67
2021/08/26 05:19:01;;;;;;;6.68;3.97;;;;;;;15.38;80.10;99536.78;4993479;28;20061;-66
2021/08/26 05:21:26;;;;;;;10.95;5.30;;;;;;;15.37;79.64;99525.31;5008867;28;20362;-67
2021/08/26 05:23:52;;;;;;;6.20;4.15;;;;;;;15.40;79.43;99532.19;5009167;28;20512;-67
2021/08/26 05:26:17;;;;;;;13.27;5.90;;;;;;;15.40;78.51;99527.72;5008663;28;20122;-66
2021/08/26 05:28:43;;;;;;;10.40;5.25;;;;;;;15.40;79.68;99529.53;5008586;28;20030;-67
2021/08/26 05:31:09;;;;;;;11.05;5.32;;;;;;;15.39;79.21;99523.38;5009439;28;20029;-68
2021/08/26 05:33:34;;;;;;;8.05;4.68;;;;;;;15.40;79.21;99527.72;5009330;28;20037;-67
2021/08/26 05:36:00;;;;;;;11.57;5.10;;;;;;;15.40;78.74;99526.88;5008032;28;20033;-66
2021/08/26 05:38:25;;;;;;;11.82;5.30;;;;;;;15.38;78.84;99519.06;5008444;28;20034;-66
2021/08/26 05:40:50;;;;;;;8.43;4.32;;;;;;;15.40;77.89;99532.19;5009060;28;20478;-67
2021/08/26 05:43:16;;;;;;;10.13;5.43;;;;;;;15.40;77.67;99533.03;5008036;28;20116;-67
2021/08/26 05:45:41;;;;;;;14.25;6.10;;;;;;;15.43;78.22;99534.63;5008603;28;20064;-68
2021/08/26 05:48:07;;;;;;;14.80;5.00;;;;;;;15.42;77.70;99530.28;5007367;28;20124;-67
2021/08/26 05:50:32;;;;;;;10.57;5.97;;;;;;;15.42;77.70;99524.97;5008413;28;20048;-67
2021/08/26 05:52:58;;;;;;;11.57;4.88;;;;;;;15.44;76.54;99525.72;5009043;28;20034;-67
2021/08/26 05:55:23;;;;;;;8.77;4.40;;;;;;;15.44;75.25;99529.22;5009219;28;20405;-66
2021/08/26 05:57:48;;;;;;;9.13;5.55;;;;;;;15.50;76.25;99530.56;5007293;28;20033;-66
2021/08/26 06:00:14;;;;;;;12.95;4.78;;;;;;;15.49;75.08;99531.53;5009319;28;20034;-67
2021/08/26 06:02:40;;;;;;;12.15;5.10;;;;;;;15.52;74.87;99528.66;5009668;28;20030;-67
2021/08/26 06:05:06;;;;;;;12.63;4.88;;;;;;;15.54;75.66;99524.06;4999141;28;20169;-61
2021/08/26 06:07:31;;;;;;;12.73;4.43;;;;;;;15.58;75.33;99514.91;5004900;28;20037;-58
2021/08/26 06:09:57;;;;;;;10.82;4.15;;;;;;;15.63;74.98;99518.09;5000743;28;20026;-56
2021/08/26 06:12:22;;;;;;;9.07;4.35;;;;;;;15.67;74.93;99513.38;5010193;28;20034;-58
2021/08/26 06:14:47;;;;;;;9.98;4.70;;;;;;;15.74;74.96;99516.47;5012700;28;20172;-58
2021/08/26 06:17:13;;;;;;;10.85;5.22;;;;;;;15.76;74.28;99522.50;5011856;28;20045;-52
2021/08/26 06:19:38;;;;;;;12.98;4.40;;;;;;;15.82;75.17;99514.06;5012763;28;20521;-57
2021/08/26 06:22:04;;;;;;;10.43;5.45;;;;;;;15.87;74.25;99519.88;5012912;28;20049;-55
2021/08/26 06:24:29;;;;;;;10.55;5.15;;;;;;;15.85;74.64;99528.00;5012947;28;20030;-59
2021/08/26 06:26:58;;;;;;;14.15;4.97;;;;;;;15.85;73.67;99525.31;5011608;28;20034;-57
2021/08/26 06:29:24;;;;;;;10.65;4.45;;;;;;;15.84;73.87;99531.59;5012944;28;20210;-57
2021/08/26 06:31:49;;;;;;;12.07;5.53;;;;;;;15.91;73.36;99533.81;5012922;28;20426;-58
2021/08/26 06:34:14;;;;;;;13.30;4.72;;;;;;;15.96;73.35;99539.63;5011459;28;20054;-58
2021/08/26 06:36:40;;;;;;;12.65;5.43;;;;;;;16.01;73.65;99532.13;5009710;28;20030;-54
2021/08/26 06:39:05;;;;;;;14.05;5.65;;;;;;;16.02;72.98;99529.38;5008212;28;20053;-59
2021/08/26 06:41:30;;;;;;;15.15;3.80;;;;;;;16.01;72.79;99534.78;5003484;28;20136;-71
2021/08/26 06:43:56;;;;;;;8.73;4.32;;;;;;;16.03;72.51;99544.34;4994431;28;20037;-70
2021/08/26 06:46:21;;;;;;;12.05;4.72;;;;;;;16.06;72.13;99544.09;5006282;28;20053;-70
2021/08/26 06:48:47;;;;;;;15.43;5.00;;;;;;;16.09;73.27;99553.66;4996739;28;20585;-69
2021/08/26 06:51:13;;;;;;;15.93;5.07;;;;;;;16.08;73.80;99550.16;5006911;28;20052;-70
2021/08/26 06:53:38;;;;;;;10.30;4.90;;;;;;;16.02;73.02;99550.66;4988775;28;20042;-70
2021/08/26 06:56:04;;;;;;;14.70;5.70;;;;;;;15.99;73.51;99553.50;4987284;28;20085;-71
2021/08/26 06:58:29;;;;;;;14.05;4.45;;;;;;;16.02;73.02;99557.75;4985528;28;20041;-69
2021/08/26 07:00:54;;;;;;;8.43;4.18;;;;;;;16.03;73.24;99557.66;4986650;28;20030;-71
2021/08/26 07:03:20;;;;;;;9.77;3.72;;;;;;;16.05;72.92;99555.72;4986913;28;20073;-68
2021/08/26 07:05:45;;;;;;;9.85;4.18;;;;;;;16.10;72.75;99566.84;4987337;28;20061;-69
2021/08/26 07:08:10;;;;;;;11.90;4.38;;;;;;;16.08;72.46;99563.47;4984983;28;20338;-68
2021/08/26 07:10:36;;;;;;;17.45;6.90;;;;;;;16.14;71.85;99570.13;4986268;28;20181;-69
2021/08/26 07:13:01;;;;;;;9.68;4.63;;;;;;;16.18;70.14;99560.13;4986678;28;20830;-70
2021/08/26 07:15:26;;;;;;;15.80;5.78;;;;;;;16.19;70.46;99567.13;4986255;28;20045;-68
2021/08/26 07:17:52;;;;;;;10.35;3.53;;;;;;;16.22;70.15;99569.53;4986220;28;20038;-68
2021/08/26 07:20:18;;;;;;;11.80;3.88;;;;;;;16.27;70.02;99575.38;4986657;28;20041;-69
2021/08/26 07:22:43;;;;;;;11.80;4.72;;;;;;;16.27;68.38;99568.25;4977106;28;20097;-71
2021/08/26 07:25:13;;;;;;;10.43;4.20;;;;;;;16.26;68.87;99573.66;4984675;28;20084;-70
2021/08/26 07:27:38;;;;;;;17.48;4.35;;;;;;;16.28;68.76;99571.75;4986272;28;20061;-69
2021/08/26 07:30:04;;;;;;;9.32;4.30;;;;;;;16.29;68.04;99574.28;4986650;28;20798;-69
2021/08/26 07:32:29;;;;;;;11.43;4.15;;;;;;;16.28;68.30;99572.59;4986882;28;20089;-69
2021/08/26 07:34:55;;;;;;;9.65;3.90;;;;;;;16.32;68.55;99570.56;4985923;28;20100;-71
2021/08/26 07:37:20;;;;;;;13.25;4.65;;;;;;;16.26;68.90;99569.19;4994883;28;20141;-70
2021/08/26 07:39:46;;;;;;;9.90;3.97;;;;;;;16.26;68.30;99566.53;5004368;28;20046;-71
2021/08/26 07:42:12;;;;;;;10.77;4.90;;;;;;;16.28;68.64;99572.59;5005812;28;20087;-71
2021/08/26 07:44:38;;;;;;;8.95;4.25;;;;;;;16.28;67.95;99566.41;5005681;28;20030;-70
2021/08/26 07:47:03;;;;;;;10.20;3.75;;;;;;;16.27;68.50;99567.41;4984534;28;20382;-70
2021/08/26 07:49:29;;;;;;;11.52;4.57;;;;;;;16.26;68.56;99569.19;4993507;28;20038;-69
2021/08/26 07:51:54;;;;;;;18.92;8.18;;;;;;;16.31;68.98;99566.19;4997697;28;20046;-69
2021/08/26 07:54:19;;;;;;;11.65;5.07;;;;;;;16.27;68.64;99562.91;5004449;28;22890;-70
2021/08/26 07:56:44;;;;;;;14.55;4.60;;;;;;;16.31;68.00;99560.84;4984251;28;20462;-69
2021/08/26 07:59:10;;;;;;;17.98;3.90;;;;;;;16.36;67.98;99560.50;4986254;28;20390;-70
2021/08/26 08:01:36;;;;;;;9.15;4.97;;;;;;;16.42;67.94;99552.91;4985086;28;20057;-70
2021/08/26 08:04:01;;;;;;;13.02;5.97;;;;;;;16.52;66.12;99555.72;4983398;28;20034;-69
2021/08/26 08:06:26;;;;;;;21.02;5.80;;;;;;;16.62;66.78;99559.34;4982236;28;20035;-70
2021/08/26 08:08:52;;;;;;;12.13;5.40;;;;;;;16.66;66.53;99559.94;4992433;28;20445;-69
2021/08/26 08:11:18;;;;;;;12.98;4.75;;;;;;;16.75;65.98;99554.75;5004437;28;20037;-70
2021/08/26 08:13:43;;;;;;;11.98;4.00;;;;;;;16.81;66.20;99558.78;4989305;28;20045;-70
2021/08/26 08:16:08;;;;;;;12.48;4.20;;;;;;;16.90;65.72;99555.38;4985639;28;20034;-69
2021/08/26 08:18:34;;;;;;;9.35;3.70;;;;;;;16.84;65.02;99555.03;4985185;28;20121;-71
2021/08/26 08:21:02;;;;;;;7.00;3.60;;;;;;;16.91;65.21;99559.75;4986149;28;20049;-71
2021/08/26 08:23:28;;;;;;;13.05;4.53;;;;;;;17.03;64.65;99551.75;4985482;28;20038;-70
2021/08/26 08:25:53;;;;;;;12.95;3.20;;;;;;;17.09;62.78;99553.94;4983229;28;20406;-70
2021/08/26 08:28:18;;;;;;;9.10;3.40;;;;;;;17.18;62.55;99558.53;4984251;28;20042;-69
2021/08/26 08:30:44;;;;;;;8.57;3.83;;;;;;;17.19;63.07;99551.38;4985222;28;20072;-70
2021/08/26 08:33:10;;;;;;;8.27;3.53;;;;;;;17.31;61.92;99547.72;4985281;28;20045;-70
2021/08/26 08:35:36;;;;;;;11.68;3.63;;;;;;;17.43;61.57;99551.22;4984564;28;20182;-71
2021/08/26 08:38:02;;;;;;;10.65;4.28;;;;;;;17.50;59.41;99544.38;4985113;28;20108;-70
2021/08/26 08:40:28;;;;;;;10.75;3.75;;;;;;;17.57;61.18;99548.25;4998716;28;20041;-70
2021/08/26 08:42:53;;;;;;;9.05;3.50;;;;;;;17.73;60.20;99537.16;5010205;28;20493;-71
2021/08/26 08:45:19;;;;;;;18.27;6.55;;;;;;;17.87;59.68;99533.38;5009536;28;20041;-70
2021/08/26 08:47:47;;;;;;;13.40;4.53;;;;;;;17.97;58.34;99537.81;5010785;28;20038;-71
2021/08/26 08:50:13;;;;;;;7.57;3.42;;;;;;;18.03;58.38;99536.44;5012452;28;20129;-72
2021/08/26 08:52:40;;;;;;;13.25;4.50;;;;;;;17.90;57.88;99531.31;5012207;28;20120;-70
2021/08/26 08:55:08;;;;;;;16.15;4.13;;;;;;;17.80;58.11;99533.91;5013872;28;20038;-70
2021/08/26 08:57:36;;;;;;;11.48;3.72;;;;;;;17.79;59.08;99542.84;5010735;28;20030;-72
2021/08/26 09:00:05;;;;;;;13.27;4.80;;;;;;;17.72;58.06;99535.47;5010089;28;20084;-72
2021/08/26 09:02:30;;;;;;;7.18;3.53;;;;;;;17.75;57.82;99537.91;5010290;28;20049;-72
2021/08/26 09:05:00;;;;;;;20.48;4.13;;;;;;;17.76;57.39;99537.75;5010539;28;20034;-69
2021/08/26 09:07:27;;;;;;;12.40;3.75;;;;;;;17.78;57.78;99535.81;5009486;28;20033;-71
2021/08/26 09:09:53;;;;;;;10.13;3.42;;;;;;;17.84;56.83;99531.81;5008715;28;20491;-72
2021/08/26 09:12:20;;;;;;;19.83;3.45;;;;;;;17.72;57.44;99539.00;5009016;28;20096;-72
2021/08/26 09:14:45;;;;;;;11.48;4.28;;;;;;;17.71;57.16;99536.44;5008402;28;20529;-71
2021/08/26 09:17:18;;;;;;;8.80;3.92;;;;;;;17.64;57.68;99533.44;5009434;28;20061;-71
2021/08/26 09:19:45;;;;;;;10.35;4.32;;;;;;;17.53;58.30;99536.16;5009727;28;20453;-71
2021/08/26 09:22:21;;;;;;;12.93;4.53;;;;;;;17.50;58.70;99528.38;5009820;28;20110;-72
2021/08/26 09:24:54;;;;;;;9.48;3.17;;;;;;;17.54;57.51;99530.69;5009687;28;20049;-71
2021/08/26 09:27:35;;;;;;;15.10;4.00;;;;;;;17.64;57.34;99520.09;5007494;28;20401;-72
2021/08/26 09:30:13;;;;;;;8.38;4.03;;;;;;;17.74;56.00;99526.34;5009845;28;20034;-71
2021/08/26 09:32:44;;;;;;;9.43;3.10;;;;;;;17.98;55.44;99531.50;5009562;28;20073;-71
2021/08/26 09:35:14;;;;;;;9.13;2.65;;;;;;;18.15;54.65;99524.75;5010338;28;20515;-71
2021/08/26 09:37:43;;;;;;;9.95;3.40;;;;;;;18.33;53.40;99526.81;5007799;28;20033;-73
2021/08/26 09:40:09;;;;;;;12.15;3.28;;;;;;;18.39;52.69;99518.31;5009685;28;20455;-72
2021/08/26 09:42:35;;;;;;;5.88;2.55;;;;;;;18.34;52.92;99525.84;5009156;28;20034;-71
2021/08/26 09:45:22;;;;;;;7.85;2.50;;;;;;;18.17;54.54;99530.81;5009374;28;20532;-73
2021/08/26 09:48:10;;;;;;;13.18;3.50;;;;;;;18.12;55.09;99526.84;5005307;28;20042;-71
2021/08/26 09:50:38;;;;;;;9.77;3.45;;;;;;;18.03;54.78;99531.97;5007720;28;20061;-71
2021/08/26 09:53:04;;;;;;;8.48;3.17;;;;;;;17.96;55.70;99527.28;5009118;28;20112;-70
2021/08/26 09:56:06;;;;;;;17.35;4.88;;;;;;;17.89;56.06;99534.09;5009489;28;20108;-72
2021/08/26 09:58:35;;;;;;;11.05;5.15;;;;;;;17.81;57.33;99538.25;4965817;28;20046;-50
2021/08/26 10:01:13;;;;;;;15.85;4.30;;;;;;;17.99;57.78;99543.00;4975038;28;20105;-45
2021/08/26 10:03:39;;;;;;;11.15;3.92;;;;;;;18.06;57.38;99544.19;4995795;28;20034;-47
2021/08/26 10:06:05;;;;;;;13.23;3.83;;;;;;;18.19;57.20;99552.88;4999442;28;20088;-51
2021/08/26 10:08:32;;;;;;;14.10;4.63;;;;;;;18.34;57.20;99541.88;4960920;28;20039;-53
2021/08/26 10:11:00;;;;;;;14.43;4.95;;;;;;;18.45;57.10;99547.97;4981542;28;20123;-50
2021/08/26 10:13:27;;;;;;;16.85;5.75;;;;;;;18.61;57.24;99546.66;4983725;28;20533;-47
2021/08/26 10:15:53;;;;;;;14.38;6.30;;;;;;;18.72;57.08;99540.38;4983476;28;20454;-72
2021/08/26 10:18:19;;;;;;;8.85;4.57;;;;;;;18.89;56.33;99539.78;4980847;28;20039;-72
2021/08/26 10:20:45;;;;;;;13.75;4.50;;;;;;;18.86;55.72;99545.41;4963386;28;20034;-71
2021/08/26 10:23:11;;;;;;;7.90;4.25;;;;;;;18.71;56.20;99546.72;4964111;28;20027;-70
2021/08/26 10:25:43;;;;;;;11.88;3.75;;;;;;;18.45;56.59;99541.78;4961083;28;20122;-69
2021/08/26 10:28:12;;;;;;;11.38;3.50;;;;;;;18.31;57.32;99542.09;4977053;28;20045;-73
2021/08/26 10:30:42;;;;;;;8.05;3.47;;;;;;;18.29;57.82;99536.91;4981161;28;20034;-70
2021/08/26 10:33:11;;;;;;;11.20;4.13;;;;;;;18.22;57.15;99546.44;4981475;28;20046;-70
2021/08/26 10:35:55;;;;;;;12.40;4.40;;;;;;;18.14;57.61;99546.22;4980550;28;20030;-72
2021/08/26 10:38:29;;;;;;;7.85;3.22;;;;;;;18.09;59.04;99540.41;4983253;28;20042;-71
2021/08/26 10:40:56;;;;;;;9.20;3.45;;;;;;;18.36;58.54;99539.88;4983513;28;20125;-69
2021/08/26 10:43:39;;;;;;;14.80;4.75;;;;;;;19.18;55.39;99539.03;4983295;28;20038;-72
2021/08/26 10:46:11;;;;;;;12.15;3.95;;;;;;;19.05;55.47;99537.44;4973223;28;20079;-71
2021/08/26 10:48:37;;;;;;;11.73;4.40;;;;;;;18.93;55.96;99530.53;5002919;28;20042;-71
2021/08/26 10:51:09;;;;;;;13.25;3.78;;;;;;;18.70;55.70;99543.16;5002096;28;20395;-70
2021/08/26 10:53:37;;;;;;;11.68;4.78;;;;;;;18.54;58.02;99550.84;5002773;28;20402;-72
2021/08/26 10:56:26;;;;;;;11.93;3.83;;;;;;;18.28;60.92;99550.38;4988455;28;20045;-70
2021/08/26 10:58:59;;;;;;;10.00;3.90;;;;;;;18.02;61.99;99550.78;4983853;28;20065;-67
2021/08/26 11:01:27;;;;;;;9.73;3.50;;;;;;;17.94;62.07;99551.44;4975687;28;20067;-69
2021/08/26 11:03:55;;;;;;;10.35;3.83;;;;;;;17.92;63.02;99548.03;4963386;28;20035;-72
2021/08/26 11:06:22;;;;;;;16.92;4.85;;;;;;;17.97;62.84;99547.66;4965074;28;20039;-70
2021/08/26 11:08:51;;;;;;;13.00;3.95;;;;;;;18.03;62.51;99547.13;4966928;28;20113;-71
2021/08/26 11:11:31;;;;;;;10.13;3.63;;;;;;;18.24;60.71;99550.66;4967288;28;20049;-72
2021/08/26 11:14:03;;;;;;;25.73;4.40;;;;;;;18.36;60.79;99547.91;4966578;28;20118;-70
2021/08/26 11:16:28;;;;;;;16.40;6.80;;;;;;;18.43;62.18;99549.06;4966145;28;20126;-71
2021/08/26 11:19:20;;;;;;;10.70;3.42;;;;;;;18.64;59.44;99544.56;4965623;28;20130;-72
2021/08/26 11:21:46;;;;;;;11.32;3.30;;;;;;;18.76;57.81;99547.19;4964214;28;20050;-72
2021/08/26 11:24:14;;;;;;;10.80;3.78;;;;;;;18.85;57.74;99549.91;4966922;28;20406;-71
2021/08/26 11:26:54;;;;;;;11.50;4.47;;;;;;;18.85;58.21;99554.38;4966530;28;20042;-72
2021/08/26 11:29:23;;;;;;;10.95;3.90;;;;;;;18.70;58.05;99548.50;4969539;28;20451;-69